createdAt,value
2016-11-16T00:00:08.954Z,0
2016-11-16T00:01:08.953Z,0
2016-11-16T00:02:08.935Z,0
2016-11-16T00:03:08.927Z,0
2016-11-16T00:04:08.791Z,0
2016-11-16T00:05:08.783Z,0
2016-11-16T00:06:08.769Z,0
2016-11-16T00:07:08.944Z,0
2016-11-16T00:08:08.775Z,0
2016-11-16T00:09:08.717Z,0
2016-11-16T00:10:08.712Z,0
2016-11-16T00:11:08.688Z,0
2016-11-16T00:12:08.679Z,0
2016-11-16T00:13:08.690Z,0
2016-11-16T00:14:08.631Z,0
2016-11-16T00:15:08.627Z,0
2016-11-16T00:16:08.618Z,0
2016-11-16T00:17:08.617Z,0
2016-11-16T00:18:08.576Z,0
2016-11-16T00:19:08.574Z,0
2016-11-16T00:20:08.547Z,0
2016-11-16T00:21:08.537Z,0
2016-11-16T00:22:08.530Z,0
2016-11-16T00:23:08.504Z,0
2016-11-16T00:24:08.487Z,0
2016-11-16T00:25:08.485Z,0
2016-11-16T00:26:08.473Z,0
2016-11-16T00:27:08.445Z,0
2016-11-16T00:28:08.420Z,0
2016-11-16T00:29:08.427Z,0
2016-11-16T00:30:08.499Z,0
2016-11-16T00:31:08.402Z,0
2016-11-16T00:32:08.362Z,0
2016-11-16T00:33:08.357Z,0
2016-11-16T00:34:08.347Z,0
2016-11-16T00:35:08.323Z,0
2016-11-16T00:36:08.339Z,0
2016-11-16T00:37:08.287Z,0
2016-11-16T00:38:08.279Z,0
2016-11-16T00:39:08.268Z,0
2016-11-16T00:40:08.260Z,0
2016-11-16T00:41:08.228Z,0
2016-11-16T00:42:08.274Z,0
2016-11-16T00:43:08.211Z,0
2016-11-16T00:44:08.219Z,0
2016-11-16T00:45:08.162Z,0
2016-11-16T00:46:08.152Z,0
2016-11-16T00:47:08.130Z,0
2016-11-16T00:48:08.125Z,0
2016-11-16T00:49:08.109Z,0
2016-11-16T00:50:08.406Z,0
2016-11-16T00:51:08.075Z,0
2016-11-16T00:52:08.378Z,0
2016-11-16T00:53:08.052Z,0
2016-11-16T00:54:08.024Z,0
2016-11-16T00:55:08.010Z,0
2016-11-16T00:56:08.004Z,0
2016-11-16T00:57:07.988Z,0
2016-11-16T00:58:07.984Z,0
2016-11-16T00:59:07.949Z,0
2016-11-16T01:00:07.943Z,0
2016-11-16T01:01:07.921Z,0
2016-11-16T01:02:07.915Z,0
2016-11-16T01:03:07.915Z,0
2016-11-16T01:04:08.556Z,0
2016-11-16T01:05:07.933Z,0
2016-11-16T01:06:07.936Z,0
2016-11-16T01:07:07.950Z,0
2016-11-16T01:08:07.848Z,0
2016-11-16T01:09:07.855Z,0
2016-11-16T01:10:08.208Z,0
2016-11-16T01:11:07.871Z,0
2016-11-16T01:12:07.799Z,0
2016-11-16T01:13:07.821Z,0
2016-11-16T01:14:07.815Z,0
2016-11-16T01:15:07.829Z,0
2016-11-16T01:16:07.837Z,0
2016-11-16T01:17:07.847Z,0
2016-11-16T01:18:07.860Z,0
2016-11-16T01:19:07.778Z,0
2016-11-16T01:20:07.761Z,0
2016-11-16T01:21:07.769Z,0
2016-11-16T01:22:07.769Z,0
2016-11-16T01:23:07.786Z,0
2016-11-16T01:24:07.718Z,0
2016-11-16T01:25:07.736Z,0
2016-11-16T01:26:07.753Z,0
2016-11-16T01:27:07.767Z,0
2016-11-16T01:28:07.748Z,0
2016-11-16T01:29:07.755Z,0
2016-11-16T01:30:07.768Z,0
2016-11-16T01:31:07.943Z,0
2016-11-16T01:32:07.644Z,0
2016-11-16T01:33:07.695Z,0
2016-11-16T01:34:07.687Z,0
2016-11-16T01:35:07.698Z,0
2016-11-16T01:36:07.557Z,0
2016-11-16T01:37:08.163Z,0
2016-11-16T01:38:07.565Z,0
2016-11-16T01:39:07.566Z,0
2016-11-16T01:40:07.572Z,0
2016-11-16T01:41:07.523Z,0
2016-11-16T01:42:07.395Z,0
2016-11-16T01:43:07.578Z,0
2016-11-16T01:44:07.391Z,0
2016-11-16T01:45:07.663Z,0
2016-11-16T01:46:07.578Z,0
2016-11-16T01:47:07.558Z,0
2016-11-16T01:48:07.211Z,0
2016-11-16T01:49:07.205Z,0
2016-11-16T01:50:07.180Z,0
2016-11-16T01:51:07.171Z,0
2016-11-16T01:52:07.157Z,0
2016-11-16T01:53:07.177Z,0
2016-11-16T01:54:07.112Z,0
2016-11-16T01:55:07.103Z,0
2016-11-16T01:56:07.087Z,0
2016-11-16T01:57:07.080Z,0
2016-11-16T01:58:07.410Z,0
2016-11-16T01:59:07.044Z,0
2016-11-16T02:00:07.042Z,0
2016-11-16T02:01:07.011Z,0
2016-11-16T02:02:07.011Z,0
2016-11-16T02:03:06.986Z,0
2016-11-16T02:04:06.962Z,0
2016-11-16T02:05:06.958Z,0
2016-11-16T02:06:06.976Z,0
2016-11-16T02:07:06.939Z,0
2016-11-16T02:08:06.905Z,0
2016-11-16T02:09:07.208Z,0
2016-11-16T02:10:06.877Z,0
2016-11-16T02:11:06.870Z,0
2016-11-16T02:12:07.194Z,0
2016-11-16T02:13:06.852Z,0
2016-11-16T02:14:06.827Z,0
2016-11-16T02:15:06.806Z,0
2016-11-16T02:16:06.824Z,0
2016-11-16T02:17:06.805Z,0
2016-11-16T02:18:06.757Z,0
2016-11-16T02:19:06.757Z,0
2016-11-16T02:20:06.738Z,0
2016-11-16T02:21:06.740Z,0
2016-11-16T02:22:06.699Z,0
2016-11-16T02:23:06.688Z,0
2016-11-16T02:24:06.684Z,0
2016-11-16T02:25:06.663Z,0
2016-11-16T02:26:06.655Z,0
2016-11-16T02:27:06.643Z,0
2016-11-16T02:28:06.620Z,0
2016-11-16T02:29:06.595Z,0
2016-11-16T02:30:06.595Z,0
2016-11-16T02:31:06.586Z,0
2016-11-16T02:32:06.560Z,0
2016-11-16T02:33:06.534Z,0
2016-11-16T02:34:06.595Z,0
2016-11-16T02:35:06.564Z,0
2016-11-16T02:36:06.512Z,0
2016-11-16T02:37:06.477Z,0
2016-11-16T02:38:06.469Z,0
2016-11-16T02:39:06.451Z,0
2016-11-16T02:40:06.459Z,0
2016-11-16T02:41:06.425Z,0
2016-11-16T02:42:06.408Z,0
2016-11-16T02:43:06.381Z,0
2016-11-16T02:44:06.385Z,0
2016-11-16T02:45:06.373Z,0
2016-11-16T02:46:06.359Z,0
2016-11-16T02:47:06.334Z,0
2016-11-16T02:48:06.313Z,0
2016-11-16T02:49:06.334Z,0
2016-11-16T02:50:06.290Z,0
2016-11-16T02:51:06.267Z,0
2016-11-16T02:52:06.257Z,0
2016-11-16T02:53:06.239Z,0
2016-11-16T02:54:06.251Z,0
2016-11-16T02:55:06.221Z,0
2016-11-16T02:56:06.208Z,0
2016-11-16T02:57:06.302Z,0
2016-11-16T02:58:06.182Z,0
2016-11-16T02:59:06.169Z,0
2016-11-16T03:00:06.183Z,0
2016-11-16T03:01:06.128Z,0
2016-11-16T03:02:06.120Z,0
2016-11-16T03:03:06.105Z,0
2016-11-16T03:04:06.068Z,0
2016-11-16T03:05:06.055Z,0
2016-11-16T03:06:06.044Z,0
2016-11-16T03:07:06.031Z,0
2016-11-16T03:08:06.032Z,0
2016-11-16T03:09:06.055Z,0
2016-11-16T03:10:06.325Z,0
2016-11-16T03:11:05.966Z,0
2016-11-16T03:12:05.960Z,0
2016-11-16T03:13:05.944Z,0
2016-11-16T03:14:05.927Z,0
2016-11-16T03:15:05.964Z,0
2016-11-16T03:16:05.906Z,0
2016-11-16T03:17:06.228Z,0
2016-11-16T03:18:05.862Z,0
2016-11-16T03:19:05.842Z,0
2016-11-16T03:20:05.846Z,0
2016-11-16T03:21:05.831Z,0
2016-11-16T03:22:05.815Z,0
2016-11-16T03:23:05.779Z,0
2016-11-16T03:24:06.096Z,0
2016-11-16T03:25:05.753Z,0
2016-11-16T03:26:05.755Z,0
2016-11-16T03:27:05.738Z,0
2016-11-16T03:28:05.709Z,0
2016-11-16T03:29:05.698Z,0
2016-11-16T03:30:05.697Z,0
2016-11-16T03:31:05.663Z,0
2016-11-16T03:32:05.677Z,0
2016-11-16T03:33:05.638Z,0
2016-11-16T03:34:05.631Z,0
2016-11-16T03:35:05.614Z,0
2016-11-16T03:36:05.624Z,0
2016-11-16T03:37:05.703Z,0
2016-11-16T03:38:05.630Z,0
2016-11-16T03:39:05.575Z,0
2016-11-16T03:40:05.553Z,0
2016-11-16T03:41:05.559Z,0
2016-11-16T03:42:05.565Z,0
2016-11-16T03:43:05.563Z,0
2016-11-16T03:44:05.575Z,0
2016-11-16T03:45:05.526Z,0
2016-11-16T03:46:05.533Z,0
2016-11-16T03:47:05.541Z,0
2016-11-16T03:48:05.544Z,0
2016-11-16T03:49:05.540Z,0
2016-11-16T03:50:05.553Z,0
2016-11-16T03:51:05.461Z,0
2016-11-16T03:52:05.471Z,0
2016-11-16T03:53:05.467Z,0
2016-11-16T03:54:05.793Z,0
2016-11-16T03:55:05.513Z,0
2016-11-16T03:56:05.496Z,0
2016-11-16T03:57:05.449Z,0
2016-11-16T03:58:05.426Z,0
2016-11-16T03:59:05.494Z,0
2016-11-16T04:00:05.465Z,0
2016-11-16T04:01:05.473Z,0
2016-11-16T04:02:05.810Z,0
2016-11-16T04:03:05.484Z,0
2016-11-16T04:04:05.390Z,0
2016-11-16T04:05:05.389Z,0
2016-11-16T04:06:05.411Z,0
2016-11-16T04:07:05.437Z,0
2016-11-16T04:08:05.417Z,0
2016-11-16T04:09:05.267Z,0
2016-11-16T04:10:05.261Z,0
2016-11-16T04:11:05.239Z,0
2016-11-16T04:12:05.237Z,0
2016-11-16T04:13:05.270Z,0
2016-11-16T04:14:05.263Z,0
2016-11-16T04:15:05.243Z,0
2016-11-16T04:16:05.213Z,0
2016-11-16T04:17:05.387Z,0
2016-11-16T04:18:05.386Z,0
2016-11-16T04:19:05.082Z,0
2016-11-16T04:20:05.069Z,0
2016-11-16T04:21:05.061Z,0
2016-11-16T04:22:04.931Z,0
2016-11-16T04:23:04.912Z,0
2016-11-16T04:24:04.927Z,0
2016-11-16T04:25:04.872Z,0
2016-11-16T04:26:04.882Z,0
2016-11-16T04:27:04.851Z,0
2016-11-16T04:28:04.842Z,0
2016-11-16T04:29:05.211Z,0
2016-11-16T04:30:04.806Z,0
2016-11-16T04:31:04.788Z,0
2016-11-16T04:32:05.508Z,0
2016-11-16T04:33:05.697Z,0
2016-11-16T04:34:04.737Z,0
2016-11-16T04:35:04.749Z,0
2016-11-16T04:36:04.722Z,0
2016-11-16T04:37:04.701Z,0
2016-11-16T04:38:04.890Z,0
2016-11-16T04:39:04.869Z,0
2016-11-16T04:40:04.658Z,0
2016-11-16T04:41:04.964Z,0
2016-11-16T04:42:04.634Z,0
2016-11-16T04:43:04.608Z,0
2016-11-16T04:44:04.636Z,0
2016-11-16T04:45:04.584Z,0
2016-11-16T04:46:04.584Z,0
2016-11-16T04:47:04.565Z,0
2016-11-16T04:48:04.920Z,0
2016-11-16T04:49:04.539Z,0
2016-11-16T04:50:04.518Z,0
2016-11-16T04:51:04.502Z,0
2016-11-16T04:52:04.490Z,0
2016-11-16T04:53:04.464Z,0
2016-11-16T04:54:04.444Z,0
2016-11-16T04:55:04.442Z,0
2016-11-16T04:56:04.459Z,0
2016-11-16T04:57:04.412Z,0
2016-11-16T04:58:04.390Z,0
2016-11-16T04:59:04.377Z,0
2016-11-16T05:00:04.386Z,0
2016-11-16T05:01:04.355Z,0
2016-11-16T05:02:04.335Z,0
2016-11-16T05:03:04.320Z,0
2016-11-16T05:04:04.305Z,0
2016-11-16T05:05:04.314Z,0
2016-11-16T05:06:04.289Z,0
2016-11-16T05:07:04.258Z,0
2016-11-16T05:08:04.245Z,0
2016-11-16T05:09:04.238Z,0
2016-11-16T05:10:04.226Z,0
2016-11-16T05:11:04.206Z,0
2016-11-16T05:12:04.180Z,0
2016-11-16T05:13:04.181Z,0
2016-11-16T05:14:04.174Z,0
2016-11-16T05:15:04.148Z,0
2016-11-16T05:16:04.151Z,0
2016-11-16T05:17:04.110Z,0
2016-11-16T05:18:04.103Z,0
2016-11-16T05:19:04.459Z,0
2016-11-16T05:20:04.442Z,0
2016-11-16T05:21:04.070Z,0
2016-11-16T05:22:04.047Z,0
2016-11-16T05:23:04.037Z,0
2016-11-16T05:24:04.014Z,0
2016-11-16T05:25:04.003Z,0
2016-11-16T05:26:03.976Z,0
2016-11-16T05:27:03.964Z,0
2016-11-16T05:28:03.969Z,0
2016-11-16T05:29:03.936Z,0
2016-11-16T05:30:03.949Z,0
2016-11-16T05:31:03.903Z,0
2016-11-16T05:32:03.897Z,0
2016-11-16T05:33:03.903Z,0
2016-11-16T05:34:03.878Z,0
2016-11-16T05:35:03.860Z,0
2016-11-16T05:36:03.838Z,0
2016-11-16T05:37:03.845Z,0
2016-11-16T05:38:03.835Z,0
2016-11-16T05:39:03.798Z,0
2016-11-16T05:40:03.817Z,0
2016-11-16T05:41:03.769Z,0
2016-11-16T05:42:18.829Z,0
2016-11-16T05:43:03.741Z,0
2016-11-16T05:44:03.765Z,0
2016-11-16T05:45:03.712Z,0
2016-11-16T05:46:03.696Z,0
2016-11-16T05:47:03.694Z,0
2016-11-16T05:48:03.677Z,0
2016-11-16T05:49:03.661Z,0
2016-11-16T05:50:03.683Z,0
2016-11-16T05:51:03.621Z,0
2016-11-16T05:52:03.939Z,0
2016-11-16T05:53:03.593Z,0
2016-11-16T05:54:03.587Z,0
2016-11-16T05:55:03.569Z,0
2016-11-16T05:56:03.558Z,0
2016-11-16T05:57:03.532Z,0
2016-11-16T05:58:03.533Z,0
2016-11-16T05:59:03.500Z,0
2016-11-16T06:00:03.498Z,0
2016-11-16T06:01:03.484Z,0
2016-11-16T06:02:03.494Z,0
2016-11-16T06:03:03.455Z,0
2016-11-16T06:04:03.463Z,0
2016-11-16T06:05:03.459Z,0
2016-11-16T06:06:03.420Z,0
2016-11-16T06:07:03.392Z,0
2016-11-16T06:08:03.381Z,0
2016-11-16T06:09:03.379Z,0
2016-11-16T06:10:03.351Z,0
2016-11-16T06:11:03.354Z,0
2016-11-16T06:12:03.326Z,0
2016-11-16T06:13:03.309Z,0
2016-11-16T06:14:03.294Z,0
2016-11-16T06:15:03.282Z,0
2016-11-16T06:16:03.292Z,0
2016-11-16T06:17:03.295Z,0
2016-11-16T06:18:03.616Z,0
2016-11-16T06:19:03.312Z,0
2016-11-16T06:20:03.334Z,0
2016-11-16T06:21:03.260Z,0
2016-11-16T06:22:03.233Z,0
2016-11-16T06:23:03.240Z,0
2016-11-16T06:24:03.245Z,0
2016-11-16T06:25:03.241Z,0
2016-11-16T06:26:03.274Z,0
2016-11-16T06:27:03.203Z,5
2016-11-16T06:28:03.206Z,5
2016-11-16T06:29:03.217Z,5
2016-11-16T06:30:03.228Z,5
2016-11-16T06:31:03.260Z,5
2016-11-16T06:32:03.615Z,5
2016-11-16T06:33:03.178Z,5
2016-11-16T06:34:03.177Z,5
2016-11-16T06:35:03.155Z,5
2016-11-16T06:36:03.164Z,5
2016-11-16T06:37:03.141Z,5
2016-11-16T06:38:03.100Z,5
2016-11-16T06:39:03.109Z,5
2016-11-16T06:40:03.124Z,10
2016-11-16T06:41:03.128Z,10
2016-11-16T06:42:03.138Z,10
2016-11-16T06:43:03.143Z,10
2016-11-16T06:44:03.156Z,10
2016-11-16T06:45:03.170Z,10
2016-11-16T06:46:03.157Z,10
2016-11-16T06:47:03.068Z,15
2016-11-16T06:48:03.072Z,15
2016-11-16T06:49:03.083Z,15
2016-11-16T06:50:02.954Z,15
2016-11-16T06:51:02.930Z,20
2016-11-16T06:52:02.968Z,20
2016-11-16T06:53:02.977Z,20
2016-11-16T06:54:02.954Z,20
2016-11-16T06:55:02.924Z,20
2016-11-16T06:56:02.921Z,20
2016-11-16T06:57:02.943Z,15
2016-11-16T06:58:02.779Z,15
2016-11-16T06:59:02.769Z,15
2016-11-16T07:00:02.758Z,15
2016-11-16T07:01:02.635Z,15
2016-11-16T07:02:02.622Z,20
2016-11-16T07:03:02.595Z,20
2016-11-16T07:04:02.583Z,20
2016-11-16T07:05:02.620Z,15
2016-11-16T07:06:02.555Z,20
2016-11-16T07:07:02.581Z,20
2016-11-16T07:08:02.536Z,25
2016-11-16T07:09:02.518Z,25
2016-11-16T07:10:02.507Z,25
2016-11-16T07:11:02.483Z,25
2016-11-16T07:12:02.478Z,25
2016-11-16T07:13:02.460Z,25
2016-11-16T07:14:02.435Z,30
2016-11-16T07:15:02.437Z,30
2016-11-16T07:16:02.416Z,35
2016-11-16T07:17:02.403Z,40
2016-11-16T07:18:02.400Z,40
2016-11-16T07:19:02.367Z,45
2016-11-16T07:20:02.687Z,45
2016-11-16T07:21:02.349Z,45
2016-11-16T07:22:02.336Z,45
2016-11-16T07:23:02.321Z,45
2016-11-16T07:24:02.301Z,45
2016-11-16T07:25:02.283Z,50
2016-11-16T07:26:02.274Z,50
2016-11-16T07:27:02.260Z,45
2016-11-16T07:28:02.405Z,40
2016-11-16T07:29:02.231Z,40
2016-11-16T07:30:02.227Z,40
2016-11-16T07:31:02.204Z,45
2016-11-16T07:32:02.203Z,50
2016-11-16T07:33:02.176Z,55
2016-11-16T07:34:02.192Z,60
2016-11-16T07:35:02.150Z,65
2016-11-16T07:36:02.179Z,65
2016-11-16T07:37:02.129Z,65
2016-11-16T07:38:02.109Z,60
2016-11-16T07:39:02.099Z,60
2016-11-16T07:40:02.113Z,65
2016-11-16T07:41:02.084Z,65
2016-11-16T07:42:02.063Z,75
2016-11-16T07:43:02.034Z,85
2016-11-16T07:44:02.031Z,95
2016-11-16T07:45:02.015Z,105
2016-11-16T07:46:02.008Z,105
2016-11-16T07:47:02.001Z,105
2016-11-16T07:48:01.960Z,105
2016-11-16T07:49:01.954Z,100
2016-11-16T07:50:02.307Z,105
2016-11-16T07:51:01.934Z,105
2016-11-16T07:52:01.937Z,100
2016-11-16T07:53:01.900Z,95
2016-11-16T07:54:01.875Z,90
2016-11-16T07:55:01.862Z,85
2016-11-16T07:56:01.878Z,80
2016-11-16T07:57:01.896Z,75
2016-11-16T07:58:01.826Z,75
2016-11-16T07:59:01.842Z,75
2016-11-16T08:00:01.815Z,75
2016-11-16T08:01:01.846Z,75
2016-11-16T08:02:01.803Z,80
2016-11-16T08:03:01.766Z,85
2016-11-16T08:04:01.756Z,90
2016-11-16T08:05:01.737Z,85
2016-11-16T08:06:02.049Z,75
2016-11-16T08:07:01.727Z,70
2016-11-16T08:08:01.699Z,70
2016-11-16T08:09:01.694Z,70
2016-11-16T08:10:01.711Z,70
2016-11-16T08:11:01.976Z,70
2016-11-16T08:12:01.677Z,70
2016-11-16T08:13:01.668Z,75
2016-11-16T08:14:01.627Z,70
2016-11-16T08:15:01.599Z,65
2016-11-16T08:16:01.743Z,65
2016-11-16T08:17:01.567Z,65
2016-11-16T08:18:01.742Z,75
2016-11-16T08:19:01.630Z,75
2016-11-16T08:20:01.652Z,80
2016-11-16T08:21:01.603Z,85
2016-11-16T08:22:01.613Z,90
2016-11-16T08:23:01.590Z,90
2016-11-16T08:24:01.604Z,90
2016-11-16T08:25:01.558Z,105
2016-11-16T08:26:01.528Z,110
2016-11-16T08:27:01.474Z,130
2016-11-16T08:28:01.522Z,140
2016-11-16T08:29:01.632Z,145
2016-11-16T08:30:01.587Z,145
2016-11-16T08:31:01.619Z,130
2016-11-16T08:32:01.480Z,115
2016-11-16T08:33:01.512Z,110
2016-11-16T08:34:01.448Z,105
2016-11-16T08:35:01.450Z,95
2016-11-16T08:36:01.486Z,90
2016-11-16T08:37:01.491Z,95
2016-11-16T08:38:01.413Z,90
2016-11-16T08:39:01.436Z,95
2016-11-16T08:40:01.354Z,105
2016-11-16T08:41:01.360Z,110
2016-11-16T08:42:01.347Z,110
2016-11-16T08:43:01.439Z,115
2016-11-16T08:44:01.323Z,120
2016-11-16T08:45:01.206Z,115
2016-11-16T08:46:01.330Z,110
2016-11-16T08:47:01.307Z,110
2016-11-16T08:48:01.383Z,110
2016-11-16T08:49:01.267Z,110
2016-11-16T08:50:01.227Z,110
2016-11-16T08:51:01.132Z,115
2016-11-16T08:52:01.238Z,120
2016-11-16T08:53:01.207Z,115
2016-11-16T08:54:01.185Z,115
2016-11-16T08:55:01.289Z,100
2016-11-16T08:56:01.163Z,90
2016-11-16T08:57:01.149Z,90
2016-11-16T08:58:01.160Z,95
2016-11-16T08:59:01.134Z,100
2016-11-16T09:00:01.351Z,110
2016-11-16T09:01:01.158Z,115
2016-11-16T09:02:01.080Z,110
2016-11-16T09:03:01.081Z,115
2016-11-16T09:04:01.267Z,115
2016-11-16T09:05:01.021Z,115
2016-11-16T09:06:01.025Z,115
2016-11-16T09:07:01.038Z,115
2016-11-16T09:08:01.009Z,110
2016-11-16T09:09:01.119Z,110
2016-11-16T09:10:01.053Z,110
2016-11-16T09:11:01.031Z,115
2016-11-16T09:12:00.931Z,110
2016-11-16T09:13:00.975Z,110
2016-11-16T09:14:01.056Z,120
2016-11-16T09:15:01.341Z,120
2016-11-16T09:16:01.020Z,120
2016-11-16T09:17:00.900Z,120
2016-11-16T09:18:00.904Z,125
2016-11-16T09:19:00.972Z,125
2016-11-16T09:20:00.755Z,125
2016-11-16T09:21:00.964Z,130
2016-11-16T09:22:00.837Z,130
2016-11-16T09:23:00.805Z,145
2016-11-16T09:24:00.844Z,155
2016-11-16T09:25:00.856Z,175
2016-11-16T09:26:01.025Z,190
2016-11-16T09:27:00.664Z,195
2016-11-16T09:28:00.784Z,185
2016-11-16T09:29:00.646Z,165
2016-11-16T09:30:00.632Z,160
2016-11-16T09:31:00.642Z,170
2016-11-16T09:32:00.808Z,170
2016-11-16T09:33:00.644Z,160
2016-11-16T09:34:00.614Z,150
2016-11-16T09:35:00.567Z,130
2016-11-16T09:36:00.566Z,125
2016-11-16T09:37:00.556Z,120
2016-11-16T09:38:00.540Z,120
2016-11-16T09:39:00.548Z,115
2016-11-16T09:40:00.517Z,115
2016-11-16T09:41:00.544Z,105
2016-11-16T09:42:00.519Z,105
2016-11-16T09:43:00.474Z,100
2016-11-16T09:44:00.496Z,95
2016-11-16T09:45:00.440Z,100
2016-11-16T09:46:00.758Z,105
2016-11-16T09:47:00.421Z,110
2016-11-16T09:48:00.408Z,105
2016-11-16T09:49:00.414Z,95
2016-11-16T09:50:00.387Z,95
2016-11-16T09:51:00.367Z,105
2016-11-16T09:52:00.363Z,125
2016-11-16T09:53:00.340Z,140
2016-11-16T09:54:00.337Z,155
2016-11-16T09:55:00.409Z,185
2016-11-16T09:56:00.316Z,210
2016-11-16T09:57:00.300Z,215
2016-11-16T09:58:00.656Z,200
2016-11-16T09:59:00.297Z,195
2016-11-16T10:00:00.283Z,190
2016-11-16T10:01:00.255Z,200
2016-11-16T10:02:00.247Z,195
2016-11-16T10:03:00.234Z,190
2016-11-16T10:04:00.214Z,190
2016-11-16T10:05:00.231Z,190
2016-11-16T10:06:00.238Z,195
2016-11-16T10:07:00.198Z,205
2016-11-16T10:08:00.176Z,215
2016-11-16T10:09:00.351Z,240
2016-11-16T10:10:00.204Z,265
2016-11-16T10:11:00.148Z,265
2016-11-16T10:12:00.120Z,250
2016-11-16T10:13:00.102Z,225
2016-11-16T10:14:00.092Z,190
2016-11-16T10:15:00.084Z,185
2016-11-16T10:16:00.087Z,200
2016-11-16T10:17:00.104Z,205
2016-11-16T10:18:00.040Z,205
2016-11-16T10:19:00.037Z,210
2016-11-16T10:20:00.042Z,230
2016-11-16T10:21:00.025Z,245
2016-11-16T10:22:00.020Z,240
2016-11-16T10:23:00.047Z,210
2016-11-16T10:24:00.041Z,195
2016-11-16T10:25:00.056Z,175
2016-11-16T10:26:00.061Z,170
2016-11-16T10:27:00.006Z,155
2016-11-16T10:28:00.007Z,165
2016-11-16T10:29:00.010Z,160
2016-11-16T10:29:59.999Z,160
2016-11-16T10:30:59.997Z,160
2016-11-16T10:31:59.990Z,165
2016-11-16T10:32:59.946Z,175
2016-11-16T10:34:00.015Z,170
2016-11-16T10:34:59.962Z,165
2016-11-16T10:35:59.968Z,155
2016-11-16T10:37:00.372Z,140
2016-11-16T10:37:59.974Z,120
2016-11-16T10:38:59.983Z,115
2016-11-16T10:39:59.994Z,110
2016-11-16T10:40:59.958Z,125
2016-11-16T10:41:59.932Z,150
2016-11-16T10:42:59.914Z,160
2016-11-16T10:43:59.927Z,145
2016-11-16T10:44:59.925Z,150
2016-11-16T10:46:00.131Z,165
2016-11-16T10:46:59.867Z,190
2016-11-16T10:47:59.874Z,210
2016-11-16T10:48:59.883Z,210
2016-11-16T10:50:00.251Z,180
2016-11-16T10:50:59.906Z,150
2016-11-16T10:51:59.909Z,125
2016-11-16T10:53:00.227Z,110
2016-11-16T10:53:59.926Z,105
2016-11-16T10:55:00.153Z,95
2016-11-16T10:55:59.850Z,85
2016-11-16T10:56:59.835Z,80
2016-11-16T10:57:59.846Z,75
2016-11-16T10:58:59.859Z,65
2016-11-16T10:59:59.831Z,75
2016-11-16T11:00:59.717Z,80
2016-11-16T11:01:59.701Z,85
2016-11-16T11:02:59.688Z,95
2016-11-16T11:03:59.686Z,110
2016-11-16T11:04:59.713Z,110
2016-11-16T11:05:59.714Z,105
2016-11-16T11:06:59.698Z,100
2016-11-16T11:07:59.675Z,85
2016-11-16T11:08:59.672Z,85
2016-11-16T11:09:59.919Z,85
2016-11-16T11:10:59.526Z,80
2016-11-16T11:11:59.525Z,70
2016-11-16T11:12:59.520Z,65
2016-11-16T11:13:59.515Z,65
2016-11-16T11:14:59.389Z,70
2016-11-16T11:15:59.711Z,65
2016-11-16T11:16:59.372Z,75
2016-11-16T11:17:59.413Z,80
2016-11-16T11:18:59.336Z,90
2016-11-16T11:19:59.324Z,110
2016-11-16T11:20:59.330Z,105
2016-11-16T11:21:59.322Z,110
2016-11-16T11:22:59.288Z,100
2016-11-16T11:23:59.280Z,80
2016-11-16T11:24:59.256Z,80
2016-11-16T11:25:59.263Z,85
2016-11-16T11:26:59.231Z,80
2016-11-16T11:27:59.272Z,85
2016-11-16T11:28:59.220Z,85
2016-11-16T11:29:59.211Z,80
2016-11-16T11:30:59.199Z,80
2016-11-16T11:31:59.198Z,80
2016-11-16T11:32:59.169Z,95
2016-11-16T11:33:59.163Z,100
2016-11-16T11:34:59.143Z,110
2016-11-16T11:35:59.143Z,125
2016-11-16T11:36:59.125Z,140
2016-11-16T11:37:59.111Z,155
2016-11-16T11:38:59.106Z,160
2016-11-16T11:39:59.447Z,150
2016-11-16T11:40:59.076Z,160
2016-11-16T11:41:59.555Z,155
2016-11-16T11:42:59.056Z,150
2016-11-16T11:43:59.046Z,140
2016-11-16T11:44:59.047Z,140
2016-11-16T11:45:59.022Z,145
2016-11-16T11:46:59.000Z,140
2016-11-16T11:47:58.995Z,135
2016-11-16T11:48:58.973Z,145
2016-11-16T11:49:58.992Z,140
2016-11-16T11:50:58.957Z,125
2016-11-16T11:51:58.942Z,130
2016-11-16T11:52:58.937Z,115
2016-11-16T11:53:58.930Z,125
2016-11-16T11:54:58.925Z,125
2016-11-16T11:55:58.906Z,115
2016-11-16T11:56:58.884Z,125
2016-11-16T11:57:58.882Z,115
2016-11-16T11:58:58.869Z,125
2016-11-16T11:59:58.855Z,115
2016-11-16T12:00:58.839Z,140
2016-11-16T12:01:58.832Z,135
2016-11-16T12:02:58.814Z,125
2016-11-16T12:03:58.828Z,145
2016-11-16T12:04:58.784Z,155
2016-11-16T12:05:58.791Z,165
2016-11-16T12:06:59.146Z,165
2016-11-16T12:07:58.766Z,170
2016-11-16T12:08:58.741Z,160
2016-11-16T12:09:58.845Z,170
2016-11-16T12:10:58.888Z,180
2016-11-16T12:11:58.721Z,170
2016-11-16T12:12:58.845Z,145
2016-11-16T12:14:13.788Z,135
2016-11-16T12:14:59.576Z,140
2016-11-16T12:15:59.026Z,145
2016-11-16T12:16:59.221Z,145
2016-11-16T12:17:58.967Z,130
2016-11-16T12:18:58.937Z,150
2016-11-16T12:19:59.525Z,160
2016-11-16T12:20:58.746Z,175
2016-11-16T12:21:58.625Z,175
2016-11-16T12:22:58.589Z,170
2016-11-16T12:23:58.579Z,160
2016-11-16T12:25:14.220Z,150
2016-11-16T12:25:59.138Z,145
2016-11-16T12:26:58.527Z,150
2016-11-16T12:27:58.544Z,150
2016-11-16T12:28:58.519Z,145
2016-11-16T12:29:59.447Z,150
2016-11-16T12:30:58.496Z,155
2016-11-16T12:31:58.965Z,170
2016-11-16T12:32:58.526Z,175
2016-11-16T12:33:58.931Z,180
2016-11-16T12:34:58.466Z,170
2016-11-16T12:35:58.596Z,170
2016-11-16T12:36:58.548Z,160
2016-11-16T12:37:58.479Z,165
2016-11-16T12:38:58.571Z,170
2016-11-16T12:39:58.506Z,155
2016-11-16T12:40:58.808Z,135
2016-11-16T12:41:58.644Z,120
2016-11-16T12:42:58.369Z,120
2016-11-16T12:43:58.542Z,110
2016-11-16T12:44:58.339Z,100
2016-11-16T12:45:58.346Z,75
2016-11-16T12:46:58.475Z,75
2016-11-16T12:47:58.320Z,75
2016-11-16T12:48:58.285Z,65
2016-11-16T12:49:58.600Z,60
2016-11-16T12:50:58.508Z,55
2016-11-16T12:51:58.586Z,55
2016-11-16T12:52:58.239Z,50
2016-11-16T12:53:58.438Z,55
2016-11-16T12:54:58.218Z,65
2016-11-16T12:55:58.205Z,60
2016-11-16T12:56:58.195Z,55
2016-11-16T12:57:58.187Z,55
2016-11-16T12:58:58.776Z,55
2016-11-16T12:59:58.160Z,65
2016-11-16T13:00:58.474Z,75
2016-11-16T13:01:58.150Z,70
2016-11-16T13:02:58.125Z,75
2016-11-16T13:03:58.319Z,75
2016-11-16T13:04:58.232Z,65
2016-11-16T13:05:58.118Z,55
2016-11-16T13:06:58.353Z,50
2016-11-16T13:07:58.455Z,50
2016-11-16T13:08:58.051Z,45
2016-11-16T13:09:58.260Z,45
2016-11-16T13:10:58.033Z,50
2016-11-16T13:11:58.039Z,45
2016-11-16T13:12:58.008Z,40
2016-11-16T13:13:58.030Z,35
2016-11-16T13:14:57.985Z,25
2016-11-16T13:15:57.979Z,25
2016-11-16T13:16:57.963Z,25
2016-11-16T13:17:57.946Z,25
2016-11-16T13:18:57.947Z,20
2016-11-16T13:19:57.927Z,30
2016-11-16T13:20:57.919Z,30
2016-11-16T13:21:57.899Z,30
2016-11-16T13:22:57.918Z,30
2016-11-16T13:23:57.883Z,25
2016-11-16T13:24:58.869Z,25
2016-11-16T13:25:57.857Z,25
2016-11-16T13:26:57.852Z,25
2016-11-16T13:27:57.836Z,25
2016-11-16T13:28:57.825Z,30
2016-11-16T13:29:57.829Z,35
2016-11-16T13:30:57.798Z,40
2016-11-16T13:31:57.794Z,35
2016-11-16T13:32:57.774Z,35
2016-11-16T13:33:57.770Z,30
2016-11-16T13:34:57.750Z,30
2016-11-16T13:35:57.733Z,35
2016-11-16T13:36:57.739Z,35
2016-11-16T13:37:57.746Z,35
2016-11-16T13:38:57.709Z,30
2016-11-16T13:39:57.687Z,30
2016-11-16T13:40:57.677Z,30
2016-11-16T13:41:57.675Z,25
2016-11-16T13:42:57.751Z,25
2016-11-16T13:43:57.741Z,30
2016-11-16T13:44:57.693Z,30
2016-11-16T13:45:57.700Z,25
2016-11-16T13:46:57.928Z,20
2016-11-16T13:47:57.654Z,20
2016-11-16T13:48:57.675Z,20
2016-11-16T13:49:57.679Z,25
2016-11-16T13:50:57.887Z,25
2016-11-16T13:51:57.664Z,25
2016-11-16T13:52:57.921Z,25
2016-11-16T13:53:57.605Z,25
2016-11-16T13:54:57.830Z,25
2016-11-16T13:55:57.619Z,25
2016-11-16T13:56:57.614Z,20
2016-11-16T13:57:57.632Z,25
2016-11-16T13:58:57.632Z,25
2016-11-16T13:59:57.654Z,25
2016-11-16T14:00:57.643Z,30
2016-11-16T14:01:57.590Z,25
2016-11-16T14:02:57.595Z,20
2016-11-16T14:03:57.614Z,20
2016-11-16T14:04:57.594Z,25
2016-11-16T14:05:57.591Z,20
2016-11-16T14:06:57.517Z,20
2016-11-16T14:07:57.536Z,20
2016-11-16T14:08:57.555Z,25
2016-11-16T14:09:57.542Z,25
2016-11-16T14:10:57.726Z,25
2016-11-16T14:11:57.552Z,30
2016-11-16T14:12:57.559Z,30
2016-11-16T14:13:57.573Z,30
2016-11-16T14:14:57.551Z,35
2016-11-16T14:15:57.538Z,30
2016-11-16T14:16:57.516Z,30
2016-11-16T14:17:57.511Z,25
2016-11-16T14:18:57.493Z,25
2016-11-16T14:19:57.374Z,25
2016-11-16T14:20:57.485Z,20